NCAR-RAP Real-Time Weather Data

Output produced by METARs form (12 August 2020  18:44 UTC)
found at http://weather.rap.ucar.edu/surface/
 
KPIH 121753Z 24018G27KT 10SM CLR 29/04 A3003 RMK AO2 PK WND 24028/1737 SLP114 T02890039 10289 20183 53007
KPIH 121653Z 26017G25KT 10SM CLR 27/05 A3003 RMK AO2 WSHFT 1607 SLP113 T02720050
KPIH 121553Z 24016G24KT 10SM FEW110 27/04 A3002 RMK AO2 SLP109 T02670039
KPIH 121453Z 19006KT 10SM SCT090 26/05 A3001 RMK AO2 SLP108 T02560050 51008
KPIH 121353Z 22007KT 10SM SCT100 22/06 A3001 RMK AO2 SLP105 T02170056
KPIH 121253Z 24004KT 10SM SCT100 21/04 A3000 RMK AO2 SLP099 T02110044
KPIH 121153Z 22008KT 10SM CLR 22/04 A2998 RMK AO2 SLP092 7//// T02220039 10239 20194 53001
KPIH 121053Z AUTO 22007G18KT 10SM CLR 23/04 A2997 RMK AO2 SLP088 T02280039 TSNO
KPIH 120953Z AUTO 21013G20KT 10SM CLR 22/04 A2998 RMK AO2 SLP091 T02220039 TSNO
KPIH 120853Z AUTO 20015G23KT 10SM CLR 22/03 A2998 RMK AO2 SLP090 T02220028 53010
KPIH 120753Z AUTO 22011KT 10SM CLR 23/02 A2996 RMK AO2 SLP085 T02280022
KPIH 120653Z AUTO 19007KT 10SM CLR 21/01 A2995 RMK AO2 SLP082 T02110011 403330100
KPIH 120553Z AUTO 22004KT 10SM CLR 22/00 A2994 RMK AO2 SLP082 T02220000 10317 20211 50002
KPIH 120453Z AUTO 19007KT 10SM CLR 22/00 A2995 RMK AO2 SLP086 T02220000
KPIH 120353Z 21008KT 10SM CLR 23/02 A2995 RMK AO2 SLP087 T02330017
KPIH 120253Z 21008KT 10SM SCT120 23/04 A2994 RMK AO2 SLP088 T02330039 55006
KPIH 120153Z 24009KT 10SM FEW080 SCT120 29/02 A2993 RMK AO2 SLP085 T02890022
KPIH 120053Z 24014KT 10SM FEW075 SCT110 31/02 A2994 RMK AO2 SLP090 T03110017
KPIH 112353Z 25019G25KT 10SM SCT075 32/00 A2996 RMK AO2 SLP096 6//// T03170000 10333 20289 58014
KPIH 112253Z 26019G24KT 10SM SCT075 32/M01 A2997 RMK AO2 PK WND 28028/2222 SLP104 T03171011